createdAt,value
2018-03-08T00:01:08.742Z,2.50
2018-03-08T00:03:35.142Z,2.50
2018-03-08T00:06:02.260Z,2.40
2018-03-08T00:08:28.707Z,2.30
2018-03-08T00:10:55.122Z,2.40
2018-03-08T00:13:21.523Z,2.40
2018-03-08T00:15:47.967Z,2.40
2018-03-08T00:18:14.354Z,2.30
2018-03-08T00:20:41.528Z,2.30
2018-03-08T00:23:07.921Z,2.20
2018-03-08T00:25:34.314Z,2.30
2018-03-08T00:28:00.705Z,2.40
2018-03-08T00:30:27.852Z,2.40
2018-03-08T00:32:54.324Z,2.40
2018-03-08T00:35:20.710Z,2.50
2018-03-08T00:37:47.120Z,2.50
2018-03-08T00:40:13.513Z,2.50
2018-03-08T00:42:39.942Z,2.40
2018-03-08T00:45:06.347Z,2.20
2018-03-08T00:47:32.735Z,2.20
2018-03-08T00:49:59.139Z,2.20
2018-03-08T00:52:26.270Z,2.30
2018-03-08T00:54:53.418Z,2.40
2018-03-08T00:57:19.830Z,2.30
2018-03-08T00:59:46.218Z,2.30
2018-03-08T01:02:12.643Z,2.20
2018-03-08T01:04:39.760Z,1.90
2018-03-08T01:07:13.110Z,1.90
2018-03-08T01:09:39.514Z,1.90
2018-03-08T01:12:06.646Z,1.80
2018-03-08T01:14:33.057Z,1.80
2018-03-08T01:16:59.473Z,1.90
2018-03-08T01:19:25.878Z,1.90
2018-03-08T01:21:53.066Z,2.20
2018-03-08T01:24:19.496Z,2.20
2018-03-08T01:26:45.931Z,2.20
2018-03-08T01:29:12.319Z,2.30
2018-03-08T01:31:39.499Z,2.40
2018-03-08T01:34:05.913Z,2.30
2018-03-08T01:36:33.046Z,2.40
2018-03-08T01:38:59.453Z,2.30
2018-03-08T01:41:25.842Z,2.40
2018-03-08T01:43:52.254Z,2.40
2018-03-08T01:46:19.418Z,2.50
2018-03-08T01:48:46.540Z,2.50
2018-03-08T01:51:12.938Z,2.50
2018-03-08T01:53:39.324Z,2.60
2018-03-08T01:56:05.730Z,2.50
2018-03-08T01:58:32.153Z,2.50
2018-03-08T02:00:58.563Z,2.50
2018-03-08T02:03:25.039Z,2.40
2018-03-08T02:05:51.469Z,2.40
2018-03-08T02:08:17.878Z,2.40
2018-03-08T02:10:44.352Z,2.30
2018-03-08T02:13:10.758Z,2.40
2018-03-08T02:15:37.151Z,2.40
2018-03-08T02:18:04.402Z,2.50
2018-03-08T02:20:31.521Z,2.50
2018-03-08T02:22:57.917Z,2.50
2018-03-08T02:25:24.332Z,2.50
2018-03-08T02:27:50.761Z,2.50
2018-03-08T02:30:18.016Z,2.60
2018-03-08T02:32:44.435Z,2.60
2018-03-08T02:35:11.575Z,2.70
2018-03-08T02:37:37.979Z,2.60
2018-03-08T02:40:04.361Z,2.70
2018-03-08T02:42:31.478Z,2.90
2018-03-08T02:44:57.888Z,2.90
2018-03-08T02:47:24.296Z,2.90
2018-03-08T02:49:50.678Z,2.90
2018-03-08T02:52:17.085Z,2.90
2018-03-08T02:54:43.462Z,3.00
2018-03-08T02:57:09.866Z,3.00
2018-03-08T02:59:36.242Z,3.00
2018-03-08T03:02:03.422Z,2.90
2018-03-08T03:04:29.862Z,2.90
2018-03-08T03:06:56.241Z,2.90
2018-03-08T03:09:22.642Z,2.90
2018-03-08T03:11:49.026Z,2.90
2018-03-08T03:14:16.173Z,2.80
2018-03-08T03:16:43.337Z,2.90
2018-03-08T03:19:10.463Z,2.90
2018-03-08T03:21:36.891Z,2.80
2018-03-08T03:24:03.281Z,2.90
2018-03-08T03:26:29.714Z,2.90
2018-03-08T03:28:56.113Z,2.90
2018-03-08T03:31:23.251Z,2.80
2018-03-08T03:33:49.745Z,2.70
2018-03-08T03:36:16.140Z,2.70
2018-03-08T03:38:43.333Z,2.60
2018-03-08T03:41:09.798Z,2.50
2018-03-08T03:43:36.226Z,2.60
2018-03-08T03:46:02.996Z,2.60
2018-03-08T03:48:33.491Z,2.60
2018-03-08T03:50:59.990Z,2.60
2018-03-08T03:53:26.397Z,2.60
2018-03-08T03:55:52.790Z,2.60
2018-03-08T03:58:19.239Z,2.70
2018-03-08T04:00:52.731Z,2.60
2018-03-08T04:03:19.135Z,2.60
2018-03-08T04:05:47.210Z,2.60
2018-03-08T04:08:13.583Z,2.60
2018-03-08T04:10:39.977Z,2.70
2018-03-08T04:13:06.429Z,2.80
2018-03-08T04:15:33.749Z,2.70
2018-03-08T04:18:00.946Z,2.80
2018-03-08T04:20:27.440Z,2.70
2018-03-08T04:22:54.594Z,2.80
2018-03-08T04:25:21.762Z,2.80
2018-03-08T04:27:48.153Z,2.80
2018-03-08T04:30:15.425Z,2.80
2018-03-08T04:32:41.916Z,2.70
2018-03-08T04:35:08.386Z,2.70
2018-03-08T04:37:35.683Z,2.70
2018-03-08T04:40:02.169Z,2.70
2018-03-08T04:42:28.549Z,2.70
2018-03-08T04:44:54.955Z,2.70
2018-03-08T04:47:22.126Z,2.70
2018-03-08T04:49:48.544Z,2.70
2018-03-08T04:52:15.713Z,2.80
2018-03-08T04:54:42.094Z,2.80
2018-03-08T04:57:08.490Z,2.90
2018-03-08T04:59:34.868Z,2.90
2018-03-08T05:02:01.302Z,2.90
2018-03-08T05:04:27.730Z,2.90
2018-03-08T05:06:54.102Z,2.80
2018-03-08T05:09:22.518Z,2.70
2018-03-08T05:11:48.902Z,2.70
2018-03-08T05:14:16.050Z,2.60
2018-03-08T05:16:42.471Z,2.60
2018-03-08T05:19:08.858Z,2.60
2018-03-08T05:21:35.278Z,2.50
2018-03-08T05:24:01.666Z,2.50
2018-03-08T05:26:28.075Z,2.50
2018-03-08T05:28:54.470Z,2.50
2018-03-08T05:31:21.634Z,2.50
2018-03-08T05:33:48.058Z,2.50
2018-03-08T05:36:15.270Z,2.60
2018-03-08T05:38:41.677Z,2.50
2018-03-08T05:41:08.079Z,2.60
2018-03-08T05:43:35.187Z,2.60
2018-03-08T05:46:01.594Z,2.60
2018-03-08T05:48:27.969Z,2.60
2018-03-08T05:50:54.383Z,2.60
2018-03-08T05:53:20.795Z,2.60
2018-03-08T05:55:47.186Z,2.70
2018-03-08T05:58:14.349Z,2.70
2018-03-08T06:00:41.524Z,2.70
2018-03-08T06:03:07.929Z,2.60
2018-03-08T06:05:35.073Z,2.80
2018-03-08T06:08:02.201Z,2.80
2018-03-08T06:10:28.602Z,2.80
2018-03-08T06:12:55.002Z,2.90
2018-03-08T06:15:22.139Z,3.00
2018-03-08T06:17:49.281Z,3.00
2018-03-08T06:20:15.661Z,3.00
2018-03-08T06:22:42.062Z,3.10
2018-03-08T06:25:09.182Z,3.10
2018-03-08T06:27:35.621Z,3.10
2018-03-08T06:30:02.074Z,3.10
2018-03-08T06:32:29.286Z,3.20
2018-03-08T06:34:55.702Z,3.10
2018-03-08T06:37:22.105Z,3.20
2018-03-08T06:39:49.248Z,3.20
2018-03-08T06:42:15.613Z,3.20
2018-03-08T06:44:42.021Z,3.30
2018-03-08T06:47:09.156Z,3.40
2018-03-08T06:49:35.566Z,3.30
2018-03-08T06:52:01.994Z,3.40
2018-03-08T06:54:28.511Z,3.30
2018-03-08T06:56:54.882Z,3.20
2018-03-08T06:59:21.254Z,3.10
2018-03-08T07:01:48.401Z,3.00
2018-03-08T07:04:15.526Z,3.10
2018-03-08T07:06:41.932Z,3.10
2018-03-08T07:09:08.337Z,3.30
2018-03-08T07:11:34.718Z,3.20
2018-03-08T07:14:01.134Z,3.30
2018-03-08T07:16:27.507Z,3.40
2018-03-08T07:18:53.910Z,3.50
2018-03-08T07:21:20.310Z,3.60
2018-03-08T07:23:46.716Z,3.70
2018-03-08T07:26:13.859Z,3.80
2018-03-08T07:28:40.260Z,3.70
2018-03-08T07:31:06.690Z,3.90
2018-03-08T07:33:33.133Z,3.90
2018-03-08T07:35:59.516Z,4.00
2018-03-08T07:38:26.657Z,4.10
2018-03-08T07:40:53.771Z,4.20
2018-03-08T07:43:20.174Z,4.20
2018-03-08T07:45:46.598Z,4.30
2018-03-08T07:48:12.983Z,4.40
2018-03-08T07:50:39.431Z,4.40
2018-03-08T07:53:05.810Z,4.50
2018-03-08T07:55:32.219Z,4.50
2018-03-08T07:57:59.358Z,4.70
2018-03-08T08:00:26.511Z,4.80
2018-03-08T08:02:53.650Z,4.80
2018-03-08T08:05:32.472Z,4.70
2018-03-08T08:08:11.089Z,4.90
2018-03-08T08:10:37.314Z,5.00
2018-03-08T08:13:03.560Z,5.10
2018-03-08T08:15:29.786Z,5.30
2018-03-08T08:17:56.008Z,5.30
2018-03-08T08:20:22.230Z,5.40
2018-03-08T08:22:48.497Z,5.50
2018-03-08T08:25:15.475Z,5.50
2018-03-08T08:27:41.682Z,5.50
2018-03-08T08:30:08.645Z,5.70
2018-03-08T08:32:34.849Z,5.70
2018-03-08T08:35:01.845Z,5.80
2018-03-08T08:37:28.101Z,5.70
2018-03-08T08:39:54.343Z,5.90
2018-03-08T08:42:20.604Z,6.00
2018-03-08T08:44:46.816Z,6.10
2018-03-08T08:47:13.792Z,6.10
2018-03-08T08:49:40.016Z,6.00
2018-03-08T08:52:06.230Z,6.30
2018-03-08T08:54:33.208Z,6.20
2018-03-08T08:56:59.426Z,6.20
2018-03-08T08:59:25.686Z,6.40
2018-03-08T09:01:51.929Z,6.30
2018-03-08T09:04:18.165Z,6.30
2018-03-08T09:06:44.400Z,6.50
2018-03-08T09:09:10.608Z,6.60
2018-03-08T09:11:37.592Z,6.90
2018-03-08T09:14:03.836Z,6.80
2018-03-08T09:16:30.822Z,6.70
2018-03-08T09:18:57.082Z,6.70
2018-03-08T09:21:23.322Z,6.80
2018-03-08T09:23:49.542Z,7.00
2018-03-08T09:26:15.792Z,7.00
2018-03-08T09:28:42.768Z,7.20
2018-03-08T09:31:08.997Z,7.10
2018-03-08T09:33:35.251Z,7.30
2018-03-08T09:36:01.471Z,7.30
2018-03-08T09:38:27.718Z,7.30
2018-03-08T09:40:53.964Z,7.30
2018-03-08T09:43:20.293Z,7.40
2018-03-08T09:45:46.524Z,7.50
2018-03-08T09:48:12.766Z,7.40
2018-03-08T09:50:39.166Z,7.60
2018-03-08T09:53:05.559Z,7.60
2018-03-08T09:55:32.728Z,7.60
2018-03-08T09:57:59.117Z,7.60
2018-03-08T10:00:25.557Z,7.70
2018-03-08T10:02:51.951Z,7.90
2018-03-08T10:05:18.360Z,8.00
2018-03-08T10:07:44.782Z,7.90
2018-03-08T10:10:11.948Z,8.30
2018-03-08T10:12:38.350Z,8.20
2018-03-08T10:15:04.758Z,8.20
2018-03-08T10:17:31.128Z,8.10
2018-03-08T10:19:58.294Z,8.30
2018-03-08T10:22:24.672Z,8.20
2018-03-08T10:24:51.079Z,8.40
2018-03-08T10:27:17.538Z,8.10
2018-03-08T10:29:43.945Z,8.20
2018-03-08T10:32:10.347Z,8.10
2018-03-08T10:34:37.490Z,8.10
2018-03-08T10:37:03.921Z,8.10
2018-03-08T10:39:30.298Z,8.20
2018-03-08T10:41:56.744Z,8.50
2018-03-08T10:44:23.158Z,8.30
2018-03-08T10:46:49.586Z,8.00
2018-03-08T10:49:16.726Z,8.10
2018-03-08T10:51:43.837Z,8.10
2018-03-08T10:54:10.978Z,7.90
2018-03-08T10:56:38.068Z,7.80
2018-03-08T10:59:03.811Z,8.00
2018-03-08T11:01:30.282Z,8.30
2018-03-08T11:04:02.573Z,8.40
2018-03-08T11:06:29.013Z,8.60
2018-03-08T11:08:55.434Z,8.80
2018-03-08T11:11:21.862Z,8.80
2018-03-08T11:13:48.255Z,8.70
2018-03-08T11:16:14.637Z,8.40
2018-03-08T11:18:41.054Z,8.60
2018-03-08T11:21:07.438Z,8.90
2018-03-08T11:23:34.609Z,9.00
2018-03-08T11:26:00.992Z,9.00
2018-03-08T11:28:27.413Z,9.10
2018-03-08T11:30:53.810Z,9.10
2018-03-08T11:33:20.185Z,9.00
2018-03-08T11:35:46.583Z,8.70
2018-03-08T11:38:14.040Z,8.80
2018-03-08T11:40:40.912Z,8.70
2018-03-08T11:43:05.855Z,8.70
2018-03-08T11:45:32.326Z,9.10
2018-03-08T11:47:58.787Z,9.80
2018-03-08T11:50:25.185Z,10.10
2018-03-08T11:52:51.618Z,9.60
2018-03-08T11:55:17.990Z,9.50
2018-03-08T11:57:44.415Z,9.80
2018-03-08T12:00:10.643Z,10.30
2018-03-08T12:02:36.881Z,10.50
2018-03-08T12:05:03.081Z,10.50
2018-03-08T12:07:29.304Z,10.70
2018-03-08T12:09:56.266Z,10.70
2018-03-08T12:12:22.601Z,10.60
2018-03-08T12:14:48.825Z,10.70
2018-03-08T12:17:15.029Z,11.00
2018-03-08T12:19:42.001Z,10.60
2018-03-08T12:22:08.209Z,10.50
2018-03-08T12:24:35.168Z,10.30
2018-03-08T12:27:02.117Z,10.20
2018-03-08T12:29:28.351Z,10.10
2018-03-08T12:31:54.589Z,10.10
2018-03-08T12:34:20.801Z,9.90
2018-03-08T12:36:47.775Z,9.70
2018-03-08T12:39:13.986Z,9.60
2018-03-08T12:41:40.252Z,9.50
2018-03-08T12:44:06.502Z,9.10
2018-03-08T12:46:32.801Z,8.90
2018-03-08T12:48:59.038Z,9.20
2018-03-08T12:51:25.259Z,9.70
2018-03-08T12:53:51.490Z,9.80
2018-03-08T12:56:17.706Z,9.70
2018-03-08T12:58:43.949Z,10.20
2018-03-08T13:01:10.192Z,10.70
2018-03-08T13:03:36.398Z,10.50
2018-03-08T13:06:02.639Z,10.60
2018-03-08T13:08:28.845Z,10.10
2018-03-08T13:10:55.081Z,9.40
2018-03-08T13:13:21.329Z,9.10
2018-03-08T13:15:47.575Z,9.10
2018-03-08T13:18:13.808Z,9.10
2018-03-08T13:20:40.042Z,9.30
2018-03-08T13:23:06.997Z,9.40
2018-03-08T13:25:33.230Z,9.30
2018-03-08T13:27:59.446Z,9.40
2018-03-08T13:30:25.675Z,9.60
2018-03-08T13:32:51.904Z,9.80
2018-03-08T13:35:18.135Z,10.00
2018-03-08T13:37:44.390Z,10.30
2018-03-08T13:40:10.608Z,10.60
2018-03-08T13:42:36.832Z,10.60
2018-03-08T13:45:03.276Z,10.50
2018-03-08T13:47:29.493Z,10.40
2018-03-08T13:49:55.747Z,10.30
2018-03-08T13:52:22.030Z,10.20
2018-03-08T13:54:48.260Z,10.20
2018-03-08T13:57:14.462Z,10.20
2018-03-08T13:59:41.442Z,10.10
2018-03-08T14:02:07.718Z,10.00
2018-03-08T14:07:08.413Z,10.10
2018-03-08T14:09:34.608Z,10.10
2018-03-08T14:12:01.569Z,10.20
2018-03-08T14:14:28.576Z,10.20
2018-03-08T14:16:54.837Z,10.10
2018-03-08T14:19:21.817Z,10.20
2018-03-08T14:21:48.017Z,10.10
2018-03-08T14:24:15.053Z,10.10
2018-03-08T14:26:43.121Z,10.20
2018-03-08T14:29:09.425Z,10.20
2018-03-08T14:31:35.642Z,10.20
2018-03-08T14:34:02.365Z,10.20
2018-03-08T14:36:29.377Z,10.10
2018-03-08T14:38:55.597Z,10.00
2018-03-08T14:41:21.826Z,10.00
2018-03-08T14:43:48.037Z,9.90
2018-03-08T14:46:14.273Z,9.90
2018-03-08T14:48:40.502Z,9.90
2018-03-08T14:51:06.757Z,10.00
2018-03-08T14:53:33.807Z,9.90
2018-03-08T14:56:00.033Z,9.90
2018-03-08T14:58:26.375Z,9.90
2018-03-08T15:00:53.324Z,9.70
2018-03-08T15:03:20.288Z,9.70
2018-03-08T15:05:46.652Z,9.70
2018-03-08T15:08:13.255Z,9.60
2018-03-08T15:10:39.504Z,9.50
2018-03-08T15:13:05.749Z,9.40
2018-03-08T15:15:31.995Z,9.50
2018-03-08T15:17:58.940Z,9.40
2018-03-08T15:20:25.208Z,9.40
2018-03-08T15:22:51.435Z,9.30
2018-03-08T15:25:18.413Z,9.20
2018-03-08T15:27:44.660Z,9.10
2018-03-08T15:30:10.901Z,9.10
2018-03-08T15:32:39.003Z,9.00
2018-03-08T15:35:05.222Z,8.90
2018-03-08T15:37:31.470Z,9.00
2018-03-08T15:39:57.773Z,9.00
2018-03-08T15:42:23.978Z,8.90
2018-03-08T15:44:50.229Z,9.00
2018-03-08T15:47:16.490Z,8.90
2018-03-08T15:49:42.730Z,8.90
2018-03-08T15:52:09.732Z,8.80
2018-03-08T15:54:35.999Z,8.80
2018-03-08T15:57:02.283Z,8.80
2018-03-08T15:59:28.540Z,8.80
2018-03-08T16:01:54.834Z,8.70
2018-03-08T16:04:21.091Z,8.60
2018-03-08T16:09:48.227Z,8.40
2018-03-08T16:12:14.483Z,8.30
2018-03-08T16:14:40.729Z,8.20
2018-03-08T16:17:07.041Z,8.10
2018-03-08T16:19:33.272Z,7.90
2018-03-08T16:21:59.505Z,7.80
2018-03-08T16:24:25.727Z,7.70
2018-03-08T16:26:51.964Z,7.60
2018-03-08T16:29:18.297Z,7.40
2018-03-08T16:31:45.282Z,7.20
2018-03-08T16:34:11.554Z,7.10
2018-03-08T16:36:37.856Z,7.10
2018-03-08T16:39:04.829Z,6.90
2018-03-08T16:41:31.044Z,6.80
2018-03-08T16:43:58.013Z,6.70
2018-03-08T16:46:24.216Z,6.70
2018-03-08T16:48:51.283Z,6.70
2018-03-08T16:51:18.258Z,6.60
2018-03-08T16:53:44.460Z,6.60
2018-03-08T16:56:10.714Z,6.50
2018-03-08T16:58:36.950Z,6.40
2018-03-08T17:01:03.193Z,6.40
2018-03-08T17:03:29.452Z,6.40
2018-03-08T17:05:55.702Z,6.40
2018-03-08T17:08:22.681Z,6.20
2018-03-08T17:10:48.889Z,6.20
2018-03-08T17:13:15.186Z,6.10
2018-03-08T17:15:41.417Z,6.00
2018-03-08T17:18:07.684Z,5.90
2018-03-08T17:20:33.888Z,5.90
2018-03-08T17:23:00.854Z,5.90
2018-03-08T17:25:27.093Z,5.80
2018-03-08T17:27:53.338Z,5.80
2018-03-08T17:30:19.731Z,5.80
2018-03-08T17:32:46.873Z,5.60
2018-03-08T17:35:13.998Z,5.50
2018-03-08T17:37:40.387Z,5.50
2018-03-08T17:40:06.802Z,5.40
2018-03-08T17:42:33.741Z,5.10
2018-03-08T17:45:00.704Z,5.10
2018-03-08T17:47:27.669Z,5.00
2018-03-08T17:49:53.873Z,5.00
2018-03-08T17:52:20.903Z,5.00
2018-03-08T17:54:47.129Z,4.90
2018-03-08T17:57:13.392Z,5.10
2018-03-08T17:59:40.369Z,5.00
2018-03-08T18:02:06.593Z,4.90
2018-03-08T18:04:32.830Z,4.90
2018-03-08T18:06:59.103Z,4.90
2018-03-08T18:09:25.417Z,4.90
2018-03-08T18:11:51.669Z,4.80
2018-03-08T18:14:18.656Z,4.50
2018-03-08T18:16:44.896Z,4.40
2018-03-08T18:19:11.097Z,4.40
2018-03-08T18:21:38.131Z,4.40
2018-03-08T18:24:05.271Z,4.50
2018-03-08T18:26:31.678Z,4.50
2018-03-08T18:28:58.053Z,4.60
2018-03-08T18:31:25.215Z,4.30
2018-03-08T18:33:52.334Z,4.10
2018-03-08T18:36:18.731Z,4.10
2018-03-08T18:38:45.142Z,4.10
2018-03-08T18:41:11.527Z,4.10
2018-03-08T18:43:37.969Z,4.00
2018-03-08T18:46:04.579Z,4.00
2018-03-08T18:48:30.912Z,3.90
2018-03-08T18:50:57.155Z,3.80
2018-03-08T18:53:23.362Z,3.70
2018-03-08T18:55:49.698Z,4.00
2018-03-08T18:58:21.954Z,4.10
2018-03-08T19:00:48.226Z,3.90
2018-03-08T19:03:14.432Z,3.90
2018-03-08T19:05:40.694Z,3.90
2018-03-08T19:08:06.970Z,3.90
2018-03-08T19:10:33.204Z,4.00
2018-03-08T19:12:59.442Z,4.00
2018-03-08T19:15:25.685Z,4.10
2018-03-08T19:17:51.964Z,4.10
2018-03-08T19:20:18.200Z,4.50
2018-03-08T19:22:45.154Z,4.30
2018-03-08T19:25:12.133Z,4.20
2018-03-08T19:27:38.349Z,4.20
2018-03-08T19:30:04.599Z,4.20
2018-03-08T19:32:30.844Z,4.20
2018-03-08T19:34:57.074Z,4.10
2018-03-08T19:37:23.333Z,4.30
2018-03-08T19:39:49.541Z,4.20
2018-03-08T19:42:15.793Z,4.10
2018-03-08T19:44:42.122Z,3.90
2018-03-08T19:47:09.150Z,4.00
2018-03-08T19:49:35.403Z,3.90
2018-03-08T19:52:01.608Z,4.00
2018-03-08T19:54:27.860Z,3.80
2018-03-08T19:56:54.073Z,3.70
2018-03-08T19:59:22.010Z,3.50
2018-03-08T20:01:49.824Z,3.40
2018-03-08T20:04:16.300Z,3.40
2018-03-08T20:06:42.729Z,3.20
2018-03-08T20:09:09.122Z,3.10
2018-03-08T20:11:35.539Z,2.90
2018-03-08T20:14:02.715Z,2.70
2018-03-08T20:16:29.148Z,2.60
2018-03-08T20:18:55.582Z,2.70
2018-03-08T20:21:22.042Z,2.90
2018-03-08T20:23:49.227Z,2.70
2018-03-08T20:26:15.666Z,2.60
2018-03-08T20:28:42.077Z,2.70
2018-03-08T20:31:08.525Z,2.60
2018-03-08T20:33:34.937Z,2.60
2018-03-08T20:36:02.181Z,3.00
2018-03-08T20:38:29.355Z,2.90
2018-03-08T20:40:55.750Z,2.90
2018-03-08T20:43:22.207Z,2.90
2018-03-08T20:45:49.371Z,2.90
2018-03-08T20:48:15.802Z,2.80
2018-03-08T20:50:42.200Z,2.80
2018-03-08T20:53:08.633Z,2.80
2018-03-08T20:55:35.051Z,2.80
2018-03-08T20:58:01.456Z,2.80
2018-03-08T21:00:27.894Z,2.90
2018-03-08T21:02:54.279Z,2.90
2018-03-08T21:05:20.722Z,2.90
2018-03-08T21:07:47.925Z,2.90
2018-03-08T21:10:14.347Z,2.80
2018-03-08T21:12:40.760Z,2.90
2018-03-08T21:15:07.895Z,2.90
2018-03-08T21:17:36.229Z,3.00
2018-03-08T21:20:02.794Z,2.90
2018-03-08T21:22:29.181Z,3.00
2018-03-08T21:24:55.601Z,3.00
2018-03-08T21:27:21.976Z,3.00
2018-03-08T21:29:49.202Z,3.10
2018-03-08T21:32:15.607Z,3.00
2018-03-08T21:34:42.039Z,3.00
2018-03-08T21:37:09.194Z,3.00
2018-03-08T21:39:36.322Z,3.10
2018-03-08T21:42:02.781Z,3.10
2018-03-08T21:44:29.889Z,3.20
2018-03-08T21:46:56.310Z,3.10
2018-03-08T21:49:22.783Z,3.30
2018-03-08T21:51:49.161Z,3.30
2018-03-08T21:54:15.566Z,3.40
2018-03-08T21:56:42.690Z,3.50
2018-03-08T21:59:09.115Z,3.50
2018-03-08T22:01:35.579Z,3.60
2018-03-08T22:04:02.721Z,3.50
2018-03-08T22:06:29.891Z,3.40
2018-03-08T22:08:57.044Z,3.40
2018-03-08T22:11:24.194Z,3.30
2018-03-08T22:13:51.337Z,3.30
2018-03-08T22:16:18.463Z,3.40
2018-03-08T22:18:44.872Z,3.30
2018-03-08T22:21:11.320Z,3.40
2018-03-08T22:23:37.707Z,3.40
2018-03-08T22:26:04.867Z,3.30
2018-03-08T22:28:31.258Z,3.20
2018-03-08T22:30:58.422Z,3.30
2018-03-08T22:33:24.846Z,3.20
2018-03-08T22:35:51.226Z,3.30
2018-03-08T22:38:17.629Z,3.30
2018-03-08T22:40:44.750Z,3.30
2018-03-08T22:43:11.216Z,3.30
2018-03-08T22:45:37.608Z,3.40
2018-03-08T22:48:04.032Z,3.40
2018-03-08T22:50:30.496Z,3.30
2018-03-08T22:52:56.874Z,3.20
2018-03-08T22:55:24.013Z,3.10
2018-03-08T22:57:51.154Z,3.00
2018-03-08T23:00:17.597Z,3.00
2018-03-08T23:02:44.823Z,3.30
2018-03-08T23:05:11.203Z,3.20
2018-03-08T23:07:37.636Z,3.40
2018-03-08T23:10:04.067Z,3.70
2018-03-08T23:12:30.470Z,4.10
2018-03-08T23:14:56.878Z,4.50
2018-03-08T23:17:23.254Z,4.80
2018-03-08T23:19:50.416Z,5.30
2018-03-08T23:22:17.534Z,5.50
2018-03-08T23:24:43.957Z,5.40
2018-03-08T23:27:10.370Z,5.50
2018-03-08T23:29:36.766Z,5.20
2018-03-08T23:32:03.926Z,4.90
2018-03-08T23:34:30.365Z,4.90
2018-03-08T23:36:56.767Z,4.80
2018-03-08T23:39:23.181Z,4.70
2018-03-08T23:41:49.603Z,4.50
2018-03-08T23:44:16.009Z,4.30
2018-03-08T23:46:42.386Z,4.30
2018-03-08T23:49:08.787Z,4.70
2018-03-08T23:51:35.203Z,4.60
2018-03-08T23:54:01.574Z,4.80
2018-03-08T23:56:27.992Z,4.90
2018-03-08T23:58:54.376Z,4.90
